sensor_id;sensor_type;location;lat;lon;timestamp;temperature;humidity
2749;DHT22;1382;52.142;11.618;2022-08-14T00:00:04;26.40;42.40
2749;DHT22;1382;52.142;11.618;2022-08-14T00:02:31;26.40;43.00
2749;DHT22;1382;52.142;11.618;2022-08-14T00:04:58;26.40;42.80
2749;DHT22;1382;52.142;11.618;2022-08-14T00:07:24;26.40;42.90
2749;DHT22;1382;52.142;11.618;2022-08-14T00:09:52;26.30;42.40
2749;DHT22;1382;52.142;11.618;2022-08-14T00:12:42;26.30;41.90
2749;DHT22;1382;52.142;11.618;2022-08-14T00:15:24;26.30;43.20
2749;DHT22;1382;52.142;11.618;2022-08-14T00:17:55;26.30;43.00
2749;DHT22;1382;52.142;11.618;2022-08-14T00:20:25;26.20;43.00
2749;DHT22;1382;52.142;11.618;2022-08-14T00:23:01;26.20;43.30
2749;DHT22;1382;52.142;11.618;2022-08-14T00:25:44;26.20;43.70
2749;DHT22;1382;52.142;11.618;2022-08-14T00:28:25;26.20;43.80
2749;DHT22;1382;52.142;11.618;2022-08-14T00:30:59;26.10;43.00
2749;DHT22;1382;52.142;11.618;2022-08-14T00:33:28;26.10;42.90
2749;DHT22;1382;52.142;11.618;2022-08-14T00:36:14;26.10;43.80
2749;DHT22;1382;52.142;11.618;2022-08-14T00:39:02;26.10;42.10
2749;DHT22;1382;52.142;11.618;2022-08-14T00:41:32;26.00;41.40
2749;DHT22;1382;52.142;11.618;2022-08-14T00:43:59;26.00;42.10
2749;DHT22;1382;52.142;11.618;2022-08-14T00:46:28;26.00;43.00
2749;DHT22;1382;52.142;11.618;2022-08-14T00:48:59;26.00;43.70
2749;DHT22;1382;52.142;11.618;2022-08-14T00:51:25;26.00;44.70
2749;DHT22;1382;52.142;11.618;2022-08-14T00:54:04;26.00;45.10
2749;DHT22;1382;52.142;11.618;2022-08-14T00:56:42;25.90;44.40
2749;DHT22;1382;52.142;11.618;2022-08-14T00:59:09;26.00;44.10
2749;DHT22;1382;52.142;11.618;2022-08-14T01:01:38;25.90;44.60
2749;DHT22;1382;52.142;11.618;2022-08-14T01:04:06;25.90;44.20
2749;DHT22;1382;52.142;11.618;2022-08-14T01:06:54;25.90;42.40
2749;DHT22;1382;52.142;11.618;2022-08-14T01:09:21;25.80;44.50
2749;DHT22;1382;52.142;11.618;2022-08-14T01:11:48;25.80;43.80
2749;DHT22;1382;52.142;11.618;2022-08-14T01:14:28;25.80;43.10
2749;DHT22;1382;52.142;11.618;2022-08-14T01:16:56;25.80;43.30
2749;DHT22;1382;52.142;11.618;2022-08-14T01:19:25;25.70;42.90
2749;DHT22;1382;52.142;11.618;2022-08-14T01:21:53;25.70;41.90
2749;DHT22;1382;52.142;11.618;2022-08-14T01:24:20;25.70;43.50
2749;DHT22;1382;52.142;11.618;2022-08-14T01:26:57;25.70;44.40
2749;DHT22;1382;52.142;11.618;2022-08-14T01:29:27;25.60;44.00
2749;DHT22;1382;52.142;11.618;2022-08-14T01:32:14;25.60;43.40
2749;DHT22;1382;52.142;11.618;2022-08-14T01:34:49;25.60;43.60
2749;DHT22;1382;52.142;11.618;2022-08-14T01:37:38;25.60;44.10
2749;DHT22;1382;52.142;11.618;2022-08-14T01:40:10;25.50;45.10
2749;DHT22;1382;52.142;11.618;2022-08-14T01:42:41;25.50;43.80
2749;DHT22;1382;52.142;11.618;2022-08-14T01:45:10;25.50;43.40
2749;DHT22;1382;52.142;11.618;2022-08-14T01:47:37;25.50;44.50
2749;DHT22;1382;52.142;11.618;2022-08-14T01:50:04;25.40;44.30
2749;DHT22;1382;52.142;11.618;2022-08-14T01:52:32;25.40;44.10
2749;DHT22;1382;52.142;11.618;2022-08-14T01:55:21;25.40;42.20
2749;DHT22;1382;52.142;11.618;2022-08-14T01:57:49;25.30;42.90
2749;DHT22;1382;52.142;11.618;2022-08-14T02:00:36;25.30;43.60
2749;DHT22;1382;52.142;11.618;2022-08-14T02:03:02;25.20;44.20
2749;DHT22;1382;52.142;11.618;2022-08-14T02:05:32;25.20;43.50
2749;DHT22;1382;52.142;11.618;2022-08-14T02:08:04;25.20;43.30
2749;DHT22;1382;52.142;11.618;2022-08-14T02:10:37;25.20;44.10
2749;DHT22;1382;52.142;11.618;2022-08-14T02:13:13;25.20;45.30
2749;DHT22;1382;52.142;11.618;2022-08-14T02:15:42;25.10;44.10
2749;DHT22;1382;52.142;11.618;2022-08-14T02:18:09;25.10;43.80
2749;DHT22;1382;52.142;11.618;2022-08-14T02:20:37;25.10;42.90
2749;DHT22;1382;52.142;11.618;2022-08-14T02:23:05;25.00;42.50
2749;DHT22;1382;52.142;11.618;2022-08-14T02:25:33;25.00;43.90
2749;DHT22;1382;52.142;11.618;2022-08-14T02:28:02;25.00;42.80
2749;DHT22;1382;52.142;11.618;2022-08-14T02:30:49;25.00;43.50
2749;DHT22;1382;52.142;11.618;2022-08-14T02:33:18;24.90;43.50
2749;DHT22;1382;52.142;11.618;2022-08-14T02:35:45;24.90;43.90
2749;DHT22;1382;52.142;11.618;2022-08-14T02:38:23;24.90;44.30
2749;DHT22;1382;52.142;11.618;2022-08-14T02:40:56;24.80;44.80
2749;DHT22;1382;52.142;11.618;2022-08-14T02:43:24;24.80;44.70
2749;DHT22;1382;52.142;11.618;2022-08-14T02:46:02;24.80;44.70
2749;DHT22;1382;52.142;11.618;2022-08-14T02:48:29;24.80;45.70
2749;DHT22;1382;52.142;11.618;2022-08-14T02:51:15;24.80;45.50
2749;DHT22;1382;52.142;11.618;2022-08-14T02:53:45;24.70;44.60
2749;DHT22;1382;52.142;11.618;2022-08-14T02:56:15;24.70;44.40
2749;DHT22;1382;52.142;11.618;2022-08-14T02:59:04;24.70;44.40
2749;DHT22;1382;52.142;11.618;2022-08-14T03:01:33;24.60;44.00
2749;DHT22;1382;52.142;11.618;2022-08-14T03:04:16;24.60;43.80
2749;DHT22;1382;52.142;11.618;2022-08-14T03:06:43;24.70;44.50
2749;DHT22;1382;52.142;11.618;2022-08-14T03:09:31;24.60;44.50
2749;DHT22;1382;52.142;11.618;2022-08-14T03:12:18;24.50;44.10
2749;DHT22;1382;52.142;11.618;2022-08-14T03:14:59;24.60;45.00
2749;DHT22;1382;52.142;11.618;2022-08-14T03:17:26;24.50;45.30
2749;DHT22;1382;52.142;11.618;2022-08-14T03:19:57;24.50;44.60
2749;DHT22;1382;52.142;11.618;2022-08-14T03:22:25;24.50;44.40
2749;DHT22;1382;52.142;11.618;2022-08-14T03:24:53;24.40;43.90
2749;DHT22;1382;52.142;11.618;2022-08-14T03:27:20;24.50;44.20
2749;DHT22;1382;52.142;11.618;2022-08-14T03:29:51;24.40;44.20
2749;DHT22;1382;52.142;11.618;2022-08-14T03:32:20;24.40;43.30
2749;DHT22;1382;52.142;11.618;2022-08-14T03:34:56;24.40;44.10
2749;DHT22;1382;52.142;11.618;2022-08-14T03:37:24;24.40;44.90
2749;DHT22;1382;52.142;11.618;2022-08-14T03:40:11;24.30;44.30
2749;DHT22;1382;52.142;11.618;2022-08-14T03:42:44;24.30;45.70
2749;DHT22;1382;52.142;11.618;2022-08-14T03:45:11;24.30;46.10
2749;DHT22;1382;52.142;11.618;2022-08-14T03:47:59;24.20;46.20
2749;DHT22;1382;52.142;11.618;2022-08-14T03:50:27;24.20;46.60
2749;DHT22;1382;52.142;11.618;2022-08-14T03:52:58;24.20;47.10
2749;DHT22;1382;52.142;11.618;2022-08-14T03:55:26;24.20;45.20
2749;DHT22;1382;52.142;11.618;2022-08-14T03:57:53;24.20;44.20
2749;DHT22;1382;52.142;11.618;2022-08-14T04:00:20;24.20;43.80
2749;DHT22;1382;52.142;11.618;2022-08-14T04:03:09;24.10;44.50
2749;DHT22;1382;52.142;11.618;2022-08-14T04:05:36;24.10;46.80
2749;DHT22;1382;52.142;11.618;2022-08-14T04:08:09;24.10;46.60
2749;DHT22;1382;52.142;11.618;2022-08-14T04:10:55;24.20;46.90
2749;DHT22;1382;52.142;11.618;2022-08-14T04:13:22;24.00;44.90
2749;DHT22;1382;52.142;11.618;2022-08-14T04:15:49;24.00;43.90
2749;DHT22;1382;52.142;11.618;2022-08-14T04:18:28;24.00;43.80
2749;DHT22;1382;52.142;11.618;2022-08-14T04:20:55;24.00;43.70
2749;DHT22;1382;52.142;11.618;2022-08-14T04:23:23;23.90;44.70
2749;DHT22;1382;52.142;11.618;2022-08-14T04:26:02;23.90;44.60
2749;DHT22;1382;52.142;11.618;2022-08-14T04:28:29;23.90;45.40
2749;DHT22;1382;52.142;11.618;2022-08-14T04:31:17;23.90;44.60
2749;DHT22;1382;52.142;11.618;2022-08-14T04:34:06;23.90;46.00
2749;DHT22;1382;52.142;11.618;2022-08-14T04:36:35;23.80;46.40
2749;DHT22;1382;52.142;11.618;2022-08-14T04:39:02;23.80;47.30
2749;DHT22;1382;52.142;11.618;2022-08-14T04:41:29;23.80;48.00
2749;DHT22;1382;52.142;11.618;2022-08-14T04:43:56;23.80;48.30
2749;DHT22;1382;52.142;11.618;2022-08-14T04:46:24;23.80;47.90
2749;DHT22;1382;52.142;11.618;2022-08-14T04:49:12;23.90;48.50
2749;DHT22;1382;52.142;11.618;2022-08-14T04:51:41;23.80;48.30
2749;DHT22;1382;52.142;11.618;2022-08-14T04:54:21;23.80;47.40
2749;DHT22;1382;52.142;11.618;2022-08-14T04:56:50;23.80;47.00
2749;DHT22;1382;52.142;11.618;2022-08-14T04:59:20;23.90;46.60
2749;DHT22;1382;52.142;11.618;2022-08-14T05:01:47;23.90;46.00
2749;DHT22;1382;52.142;11.618;2022-08-14T05:04:23;23.90;45.90
2749;DHT22;1382;52.142;11.618;2022-08-14T05:06:51;23.90;46.00
2749;DHT22;1382;52.142;11.618;2022-08-14T05:09:21;23.90;47.40
2749;DHT22;1382;52.142;11.618;2022-08-14T05:11:48;23.90;48.00
2749;DHT22;1382;52.142;11.618;2022-08-14T05:14:17;23.90;47.40
2749;DHT22;1382;52.142;11.618;2022-08-14T05:17:04;23.90;46.30
2749;DHT22;1382;52.142;11.618;2022-08-14T05:19:33;23.90;46.40
2749;DHT22;1382;52.142;11.618;2022-08-14T05:22:10;23.90;47.50
2749;DHT22;1382;52.142;11.618;2022-08-14T05:24:46;24.00;48.10
2749;DHT22;1382;52.142;11.618;2022-08-14T05:27:15;24.00;48.40
2749;DHT22;1382;52.142;11.618;2022-08-14T05:29:42;24.00;48.90
2749;DHT22;1382;52.142;11.618;2022-08-14T05:32:09;24.00;49.20
2749;DHT22;1382;52.142;11.618;2022-08-14T05:34:37;24.00;49.50
2749;DHT22;1382;52.142;11.618;2022-08-14T05:37:05;24.00;49.80
2749;DHT22;1382;52.142;11.618;2022-08-14T05:39:32;24.20;49.80
2749;DHT22;1382;52.142;11.618;2022-08-14T05:41:59;24.20;49.60
2749;DHT22;1382;52.142;11.618;2022-08-14T05:44:35;24.10;49.50
2749;DHT22;1382;52.142;11.618;2022-08-14T05:47:02;24.10;49.80
2749;DHT22;1382;52.142;11.618;2022-08-14T05:49:29;24.20;49.60
2749;DHT22;1382;52.142;11.618;2022-08-14T05:52:01;24.20;49.60
2749;DHT22;1382;52.142;11.618;2022-08-14T05:54:29;24.20;49.60
2749;DHT22;1382;52.142;11.618;2022-08-14T05:57:01;24.20;49.50
2749;DHT22;1382;52.142;11.618;2022-08-14T05:59:28;24.20;49.80
2749;DHT22;1382;52.142;11.618;2022-08-14T06:02:05;24.30;49.80
2749;DHT22;1382;52.142;11.618;2022-08-14T06:04:32;24.30;49.90
2749;DHT22;1382;52.142;11.618;2022-08-14T06:06:58;24.30;49.80
2749;DHT22;1382;52.142;11.618;2022-08-14T06:09:27;24.30;49.50
2749;DHT22;1382;52.142;11.618;2022-08-14T06:11:55;24.40;48.90
2749;DHT22;1382;52.142;11.618;2022-08-14T06:14:23;24.40;48.30
2749;DHT22;1382;52.142;11.618;2022-08-14T06:16:52;24.40;48.40
2749;DHT22;1382;52.142;11.618;2022-08-14T06:19:19;24.50;47.80
2749;DHT22;1382;52.142;11.618;2022-08-14T06:21:49;24.50;48.60
2749;DHT22;1382;52.142;11.618;2022-08-14T06:24:24;24.60;48.90
2749;DHT22;1382;52.142;11.618;2022-08-14T06:26:53;24.60;47.80
2749;DHT22;1382;52.142;11.618;2022-08-14T06:29:30;24.60;48.90
2749;DHT22;1382;52.142;11.618;2022-08-14T06:32:00;24.60;49.40
2749;DHT22;1382;52.142;11.618;2022-08-14T06:34:47;24.70;49.80
2749;DHT22;1382;52.142;11.618;2022-08-14T06:37:40;24.80;50.20
2749;DHT22;1382;52.142;11.618;2022-08-14T06:40:09;24.80;50.00
2749;DHT22;1382;52.142;11.618;2022-08-14T06:42:55;24.90;49.80
2749;DHT22;1382;52.142;11.618;2022-08-14T06:45:26;25.00;50.50
2749;DHT22;1382;52.142;11.618;2022-08-14T06:47:53;25.00;50.20
2749;DHT22;1382;52.142;11.618;2022-08-14T06:50:24;25.10;51.30
2749;DHT22;1382;52.142;11.618;2022-08-14T06:52:54;25.20;50.30
2749;DHT22;1382;52.142;11.618;2022-08-14T06:55:21;25.30;50.00
2749;DHT22;1382;52.142;11.618;2022-08-14T06:57:55;25.40;50.50
2749;DHT22;1382;52.142;11.618;2022-08-14T07:00:25;25.40;49.70
2749;DHT22;1382;52.142;11.618;2022-08-14T07:02:56;25.70;49.70
2749;DHT22;1382;52.142;11.618;2022-08-14T07:05:23;25.80;49.40
2749;DHT22;1382;52.142;11.618;2022-08-14T07:07:50;25.80;49.70
2749;DHT22;1382;52.142;11.618;2022-08-14T07:10:17;25.90;48.70
2749;DHT22;1382;52.142;11.618;2022-08-14T07:12:44;26.10;48.80
2749;DHT22;1382;52.142;11.618;2022-08-14T07:15:31;26.10;48.50
2749;DHT22;1382;52.142;11.618;2022-08-14T07:18:00;26.20;49.60
2749;DHT22;1382;52.142;11.618;2022-08-14T07:20:28;26.40;50.00
2749;DHT22;1382;52.142;11.618;2022-08-14T07:22:58;26.50;49.40
2749;DHT22;1382;52.142;11.618;2022-08-14T07:25:33;26.70;49.00
2749;DHT22;1382;52.142;11.618;2022-08-14T07:28:08;26.80;49.90
2749;DHT22;1382;52.142;11.618;2022-08-14T07:30:42;27.00;48.90
2749;DHT22;1382;52.142;11.618;2022-08-14T07:33:18;27.20;49.00
2749;DHT22;1382;52.142;11.618;2022-08-14T07:35:50;27.30;48.70
2749;DHT22;1382;52.142;11.618;2022-08-14T07:38:25;27.50;48.80
2749;DHT22;1382;52.142;11.618;2022-08-14T07:40:57;27.70;48.70
2749;DHT22;1382;52.142;11.618;2022-08-14T07:43:24;27.80;48.40
2749;DHT22;1382;52.142;11.618;2022-08-14T07:45:53;28.00;48.90
2749;DHT22;1382;52.142;11.618;2022-08-14T07:48:20;28.30;48.70
2749;DHT22;1382;52.142;11.618;2022-08-14T07:50:50;28.50;48.50
2749;DHT22;1382;52.142;11.618;2022-08-14T07:53:18;28.70;48.60
2749;DHT22;1382;52.142;11.618;2022-08-14T07:55:45;28.90;48.70
2749;DHT22;1382;52.142;11.618;2022-08-14T07:58:26;29.10;49.40
2749;DHT22;1382;52.142;11.618;2022-08-14T08:01:06;29.30;47.60
2749;DHT22;1382;52.142;11.618;2022-08-14T08:03:36;29.50;47.50
2749;DHT22;1382;52.142;11.618;2022-08-14T08:06:04;29.70;47.50
2749;DHT22;1382;52.142;11.618;2022-08-14T08:08:36;29.90;47.00
2749;DHT22;1382;52.142;11.618;2022-08-14T08:11:07;30.30;46.90
2749;DHT22;1382;52.142;11.618;2022-08-14T08:13:41;30.40;46.70
2749;DHT22;1382;52.142;11.618;2022-08-14T08:16:21;30.40;45.80
2749;DHT22;1382;52.142;11.618;2022-08-14T08:18:49;30.80;45.70
2749;DHT22;1382;52.142;11.618;2022-08-14T08:21:23;30.90;45.70
2749;DHT22;1382;52.142;11.618;2022-08-14T08:23:58;31.00;45.00
2749;DHT22;1382;52.142;11.618;2022-08-14T08:26:29;31.30;44.60
2749;DHT22;1382;52.142;11.618;2022-08-14T08:28:57;31.60;44.30
2749;DHT22;1382;52.142;11.618;2022-08-14T08:31:25;31.60;43.50
2749;DHT22;1382;52.142;11.618;2022-08-14T08:34:03;31.90;43.80
2749;DHT22;1382;52.142;11.618;2022-08-14T08:36:39;32.00;43.50
2749;DHT22;1382;52.142;11.618;2022-08-14T08:39:07;32.10;43.10
2749;DHT22;1382;52.142;11.618;2022-08-14T08:41:46;32.20;42.60
2749;DHT22;1382;52.142;11.618;2022-08-14T08:44:19;32.30;42.20
2749;DHT22;1382;52.142;11.618;2022-08-14T08:47:01;32.40;42.20
2749;DHT22;1382;52.142;11.618;2022-08-14T08:49:37;32.60;42.20
2749;DHT22;1382;52.142;11.618;2022-08-14T08:52:14;32.70;41.90
2749;DHT22;1382;52.142;11.618;2022-08-14T08:54:55;32.80;41.50
2749;DHT22;1382;52.142;11.618;2022-08-14T08:57:22;33.00;41.60
2749;DHT22;1382;52.142;11.618;2022-08-14T08:59:50;33.00;41.30
2749;DHT22;1382;52.142;11.618;2022-08-14T09:02:25;33.20;41.00
2749;DHT22;1382;52.142;11.618;2022-08-14T09:05:00;33.30;40.30
2749;DHT22;1382;52.142;11.618;2022-08-14T09:07:27;33.50;40.10
2749;DHT22;1382;52.142;11.618;2022-08-14T09:09:57;33.50;39.70
2749;DHT22;1382;52.142;11.618;2022-08-14T09:12:26;33.50;39.70
2749;DHT22;1382;52.142;11.618;2022-08-14T09:15:03;33.60;39.10
2749;DHT22;1382;52.142;11.618;2022-08-14T09:17:39;33.70;39.70
2749;DHT22;1382;52.142;11.618;2022-08-14T09:20:08;33.80;39.30
2749;DHT22;1382;52.142;11.618;2022-08-14T09:22:38;33.90;39.40
2749;DHT22;1382;52.142;11.618;2022-08-14T09:25:14;34.10;38.80
2749;DHT22;1382;52.142;11.618;2022-08-14T09:27:42;34.10;38.60
2749;DHT22;1382;52.142;11.618;2022-08-14T09:30:09;34.20;38.10
2749;DHT22;1382;52.142;11.618;2022-08-14T09:33:20;34.30;38.60
2749;DHT22;1382;52.142;11.618;2022-08-14T09:36:02;34.60;38.00
2749;DHT22;1382;52.142;11.618;2022-08-14T09:38:41;34.50;37.80
2749;DHT22;1382;52.142;11.618;2022-08-14T09:41:22;34.60;37.80
2749;DHT22;1382;52.142;11.618;2022-08-14T09:44:26;34.70;37.50
2749;DHT22;1382;52.142;11.618;2022-08-14T09:46:59;34.80;37.00
2749;DHT22;1382;52.142;11.618;2022-08-14T09:49:32;34.90;36.60
2749;DHT22;1382;52.142;11.618;2022-08-14T09:52:08;35.00;36.00
2749;DHT22;1382;52.142;11.618;2022-08-14T09:54:55;35.20;36.20
2749;DHT22;1382;52.142;11.618;2022-08-14T09:57:25;35.30;36.50
2749;DHT22;1382;52.142;11.618;2022-08-14T09:59:56;35.40;35.90
2749;DHT22;1382;52.142;11.618;2022-08-14T10:02:27;35.70;35.80
2749;DHT22;1382;52.142;11.618;2022-08-14T10:05:05;35.80;36.40
2749;DHT22;1382;52.142;11.618;2022-08-14T10:07:36;35.80;35.60
2749;DHT22;1382;52.142;11.618;2022-08-14T10:10:13;36.00;35.50
2749;DHT22;1382;52.142;11.618;2022-08-14T10:12:49;36.00;35.30
2749;DHT22;1382;52.142;11.618;2022-08-14T10:15:22;36.10;34.40
2749;DHT22;1382;52.142;11.618;2022-08-14T10:18:01;36.20;34.70
2749;DHT22;1382;52.142;11.618;2022-08-14T10:20:34;36.30;34.60
2749;DHT22;1382;52.142;11.618;2022-08-14T10:23:11;36.50;34.80
2749;DHT22;1382;52.142;11.618;2022-08-14T10:25:50;36.60;34.40
2749;DHT22;1382;52.142;11.618;2022-08-14T10:28:20;36.60;34.20
2749;DHT22;1382;52.142;11.618;2022-08-14T10:31:21;36.70;34.90
2749;DHT22;1382;52.142;11.618;2022-08-14T10:34:04;36.80;34.50
2749;DHT22;1382;52.142;11.618;2022-08-14T10:36:42;36.90;33.60
2749;DHT22;1382;52.142;11.618;2022-08-14T10:39:16;37.00;34.20
2749;DHT22;1382;52.142;11.618;2022-08-14T10:41:44;37.10;33.30
2749;DHT22;1382;52.142;11.618;2022-08-14T10:44:17;37.40;32.70
2749;DHT22;1382;52.142;11.618;2022-08-14T10:46:51;37.40;32.10
2749;DHT22;1382;52.142;11.618;2022-08-14T10:49:40;37.30;31.80
2749;DHT22;1382;52.142;11.618;2022-08-14T10:52:11;37.60;31.30
2749;DHT22;1382;52.142;11.618;2022-08-14T10:54:47;37.60;31.40
2749;DHT22;1382;52.142;11.618;2022-08-14T10:57:23;37.70;33.20
2749;DHT22;1382;52.142;11.618;2022-08-14T10:59:54;37.80;31.70
2749;DHT22;1382;52.142;11.618;2022-08-14T11:02:24;38.00;32.40
2749;DHT22;1382;52.142;11.618;2022-08-14T11:05:14;38.10;32.30
2749;DHT22;1382;52.142;11.618;2022-08-14T11:07:54;38.20;30.80
2749;DHT22;1382;52.142;11.618;2022-08-14T11:10:24;38.30;31.50
2749;DHT22;1382;52.142;11.618;2022-08-14T11:12:55;38.30;30.60
2749;DHT22;1382;52.142;11.618;2022-08-14T11:15:23;38.40;30.40
2749;DHT22;1382;52.142;11.618;2022-08-14T11:17:51;38.50;29.80
2749;DHT22;1382;52.142;11.618;2022-08-14T11:20:19;38.60;30.40
2749;DHT22;1382;52.142;11.618;2022-08-14T11:22:52;38.70;30.00
2749;DHT22;1382;52.142;11.618;2022-08-14T11:25:26;38.70;29.90
2749;DHT22;1382;52.142;11.618;2022-08-14T11:28:11;38.70;29.40
2749;DHT22;1382;52.142;11.618;2022-08-14T11:30:47;38.70;30.00
2749;DHT22;1382;52.142;11.618;2022-08-14T11:33:21;38.70;29.60
2749;DHT22;1382;52.142;11.618;2022-08-14T11:35:48;38.70;29.60
2749;DHT22;1382;52.142;11.618;2022-08-14T11:38:17;38.70;28.90
2749;DHT22;1382;52.142;11.618;2022-08-14T11:40:44;38.70;28.80
2749;DHT22;1382;52.142;11.618;2022-08-14T11:43:14;38.70;29.00
2749;DHT22;1382;52.142;11.618;2022-08-14T11:45:46;38.70;29.80
2749;DHT22;1382;52.142;11.618;2022-08-14T11:48:15;38.70;29.00
2749;DHT22;1382;52.142;11.618;2022-08-14T11:51:11;38.70;29.70
2749;DHT22;1382;52.142;11.618;2022-08-14T11:53:40;38.70;29.60
2749;DHT22;1382;52.142;11.618;2022-08-14T11:56:08;38.70;29.20
2749;DHT22;1382;52.142;11.618;2022-08-14T11:58:37;38.80;29.00
2749;DHT22;1382;52.142;11.618;2022-08-14T12:01:06;38.70;29.30
2749;DHT22;1382;52.142;11.618;2022-08-14T12:03:36;38.70;29.40
2749;DHT22;1382;52.142;11.618;2022-08-14T12:06:19;38.70;29.00
2749;DHT22;1382;52.142;11.618;2022-08-14T12:09:03;38.70;29.70
2749;DHT22;1382;52.142;11.618;2022-08-14T12:11:37;38.70;28.90
2749;DHT22;1382;52.142;11.618;2022-08-14T12:14:10;38.70;28.80
2749;DHT22;1382;52.142;11.618;2022-08-14T12:16:59;38.80;28.70
2749;DHT22;1382;52.142;11.618;2022-08-14T12:19:28;38.70;29.40
2749;DHT22;1382;52.142;11.618;2022-08-14T12:21:59;38.80;29.40
2749;DHT22;1382;52.142;11.618;2022-08-14T12:24:28;38.80;29.20
2749;DHT22;1382;52.142;11.618;2022-08-14T12:27:02;38.90;29.10
2749;DHT22;1382;52.142;11.618;2022-08-14T12:29:29;38.90;29.60
2749;DHT22;1382;52.142;11.618;2022-08-14T12:31:58;39.00;29.20
2749;DHT22;1382;52.142;11.618;2022-08-14T12:34:29;39.00;29.50
2749;DHT22;1382;52.142;11.618;2022-08-14T12:37:01;39.10;29.10
2749;DHT22;1382;52.142;11.618;2022-08-14T12:39:30;39.30;28.20
2749;DHT22;1382;52.142;11.618;2022-08-14T12:42:06;39.20;29.10
2749;DHT22;1382;52.142;11.618;2022-08-14T12:44:36;39.30;29.00
2749;DHT22;1382;52.142;11.618;2022-08-14T12:47:05;39.40;29.20
2749;DHT22;1382;52.142;11.618;2022-08-14T12:49:32;39.50;28.20
2749;DHT22;1382;52.142;11.618;2022-08-14T12:52:01;39.80;29.50
2749;DHT22;1382;52.142;11.618;2022-08-14T12:54:30;39.90;28.70
2749;DHT22;1382;52.142;11.618;2022-08-14T12:57:05;40.00;28.10
2749;DHT22;1382;52.142;11.618;2022-08-14T12:59:34;40.00;29.10
2749;DHT22;1382;52.142;11.618;2022-08-14T13:02:20;40.30;29.10
2749;DHT22;1382;52.142;11.618;2022-08-14T13:04:52;40.40;28.90
2749;DHT22;1382;52.142;11.618;2022-08-14T13:07:19;40.60;28.70
2749;DHT22;1382;52.142;11.618;2022-08-14T13:09:53;40.60;28.50
2749;DHT22;1382;52.142;11.618;2022-08-14T13:12:23;40.70;29.50
2749;DHT22;1382;52.142;11.618;2022-08-14T13:15:02;40.80;28.20
2749;DHT22;1382;52.142;11.618;2022-08-14T13:17:43;40.90;28.80
2749;DHT22;1382;52.142;11.618;2022-08-14T13:20:12;41.20;27.70
2749;DHT22;1382;52.142;11.618;2022-08-14T13:22:51;41.10;27.00
2749;DHT22;1382;52.142;11.618;2022-08-14T13:25:22;41.20;27.80
2749;DHT22;1382;52.142;11.618;2022-08-14T13:27:51;41.20;28.40
2749;DHT22;1382;52.142;11.618;2022-08-14T13:30:21;41.40;28.10
2749;DHT22;1382;52.142;11.618;2022-08-14T13:32:51;41.50;27.30
2749;DHT22;1382;52.142;11.618;2022-08-14T13:35:20;41.60;26.90
2749;DHT22;1382;52.142;11.618;2022-08-14T13:37:49;41.60;27.10
2749;DHT22;1382;52.142;11.618;2022-08-14T13:40:21;41.70;27.50
2749;DHT22;1382;52.142;11.618;2022-08-14T13:42:53;41.90;27.90
2749;DHT22;1382;52.142;11.618;2022-08-14T13:45:22;41.80;26.50
2749;DHT22;1382;52.142;11.618;2022-08-14T13:47:59;41.70;26.30
2749;DHT22;1382;52.142;11.618;2022-08-14T13:50:26;41.70;26.80
2749;DHT22;1382;52.142;11.618;2022-08-14T13:52:55;41.80;26.60
2749;DHT22;1382;52.142;11.618;2022-08-14T13:55:27;41.90;25.80
2749;DHT22;1382;52.142;11.618;2022-08-14T13:57:57;41.90;26.40
2749;DHT22;1382;52.142;11.618;2022-08-14T14:00:32;41.70;26.40
2749;DHT22;1382;52.142;11.618;2022-08-14T14:03:02;41.60;25.50
2749;DHT22;1382;52.142;11.618;2022-08-14T14:05:32;41.40;25.40
2749;DHT22;1382;52.142;11.618;2022-08-14T14:08:20;41.30;25.80
2749;DHT22;1382;52.142;11.618;2022-08-14T14:11:09;41.20;25.90
2749;DHT22;1382;52.142;11.618;2022-08-14T14:13:36;41.10;25.80
2749;DHT22;1382;52.142;11.618;2022-08-14T14:16:10;41.00;26.40
2749;DHT22;1382;52.142;11.618;2022-08-14T14:18:41;41.10;26.20
2749;DHT22;1382;52.142;11.618;2022-08-14T14:21:08;41.10;26.50
2749;DHT22;1382;52.142;11.618;2022-08-14T14:23:36;40.90;26.10
2749;DHT22;1382;52.142;11.618;2022-08-14T14:26:04;40.80;26.50
2749;DHT22;1382;52.142;11.618;2022-08-14T14:28:42;40.80;26.40
2749;DHT22;1382;52.142;11.618;2022-08-14T14:31:10;40.80;26.80
2749;DHT22;1382;52.142;11.618;2022-08-14T14:33:42;40.70;26.80
2749;DHT22;1382;52.142;11.618;2022-08-14T14:36:17;40.70;26.20
2749;DHT22;1382;52.142;11.618;2022-08-14T14:38:50;40.70;26.60
2749;DHT22;1382;52.142;11.618;2022-08-14T14:41:19;40.70;26.80
2749;DHT22;1382;52.142;11.618;2022-08-14T14:43:49;40.90;26.50
2749;DHT22;1382;52.142;11.618;2022-08-14T14:46:18;40.80;26.60
2749;DHT22;1382;52.142;11.618;2022-08-14T14:48:45;40.80;26.30
2749;DHT22;1382;52.142;11.618;2022-08-14T14:51:20;40.80;26.30
2749;DHT22;1382;52.142;11.618;2022-08-14T14:53:47;40.90;26.50
2749;DHT22;1382;52.142;11.618;2022-08-14T14:56:14;40.90;25.40
2749;DHT22;1382;52.142;11.618;2022-08-14T14:59:03;41.00;27.30
2749;DHT22;1382;52.142;11.618;2022-08-14T15:01:32;41.10;26.40
2749;DHT22;1382;52.142;11.618;2022-08-14T15:04:00;41.10;26.00
2749;DHT22;1382;52.142;11.618;2022-08-14T15:06:33;41.10;26.30
2749;DHT22;1382;52.142;11.618;2022-08-14T15:09:01;41.20;25.60
2749;DHT22;1382;52.142;11.618;2022-08-14T15:11:30;41.20;25.80
2749;DHT22;1382;52.142;11.618;2022-08-14T15:13:57;41.40;25.70
2749;DHT22;1382;52.142;11.618;2022-08-14T15:16:27;41.30;25.30
2749;DHT22;1382;52.142;11.618;2022-08-14T15:18:54;41.30;25.60
2749;DHT22;1382;52.142;11.618;2022-08-14T15:21:21;41.40;25.30
2749;DHT22;1382;52.142;11.618;2022-08-14T15:23:48;41.40;24.40
2749;DHT22;1382;52.142;11.618;2022-08-14T15:26:16;41.40;25.10
2749;DHT22;1382;52.142;11.618;2022-08-14T15:28:56;41.30;25.00
2749;DHT22;1382;52.142;11.618;2022-08-14T15:31:29;41.30;24.80
2749;DHT22;1382;52.142;11.618;2022-08-14T15:33:56;41.20;24.40
2749;DHT22;1382;52.142;11.618;2022-08-14T15:36:43;41.20;25.80
2749;DHT22;1382;52.142;11.618;2022-08-14T15:39:12;41.10;25.40
2749;DHT22;1382;52.142;11.618;2022-08-14T15:41:40;41.10;25.90
2749;DHT22;1382;52.142;11.618;2022-08-14T15:44:10;41.00;25.60
2749;DHT22;1382;52.142;11.618;2022-08-14T15:46:54;40.90;25.20
2749;DHT22;1382;52.142;11.618;2022-08-14T15:49:21;40.80;24.80
2749;DHT22;1382;52.142;11.618;2022-08-14T15:51:48;40.70;25.30
2749;DHT22;1382;52.142;11.618;2022-08-14T15:54:16;40.60;25.50
2749;DHT22;1382;52.142;11.618;2022-08-14T15:56:55;40.60;25.50
2749;DHT22;1382;52.142;11.618;2022-08-14T15:59:24;40.60;25.60
2749;DHT22;1382;52.142;11.618;2022-08-14T16:01:54;40.50;25.80
2749;DHT22;1382;52.142;11.618;2022-08-14T16:04:21;40.60;25.70
2749;DHT22;1382;52.142;11.618;2022-08-14T16:06:50;40.50;25.50
2749;DHT22;1382;52.142;11.618;2022-08-14T16:09:21;40.40;25.40
2749;DHT22;1382;52.142;11.618;2022-08-14T16:11:48;40.40;25.60
2749;DHT22;1382;52.142;11.618;2022-08-14T16:14:19;40.40;25.30
2749;DHT22;1382;52.142;11.618;2022-08-14T16:16:47;40.40;25.80
2749;DHT22;1382;52.142;11.618;2022-08-14T16:19:23;40.40;25.70